sensor_id;sensor_type;location;lat;lon;timestamp;P1;durP1;ratioP1;P2;durP2;ratioP2
58659;SDS011;44429;45.110;20.622;2023-02-01T00:01:43;1.33;;;0.88;;
58659;SDS011;44429;45.110;20.622;2023-02-01T00:04:09;0.22;;;0.10;;
58659;SDS011;44429;45.110;20.622;2023-02-01T00:06:35;0.30;;;0.20;;
58659;SDS011;44429;45.110;20.622;2023-02-01T00:09:01;1.45;;;0.40;;
58659;SDS011;44429;45.110;20.622;2023-02-01T00:11:27;0.28;;;0.13;;
58659;SDS011;44429;45.110;20.622;2023-02-01T00:13:54;1.58;;;1.05;;
58659;SDS011;44429;45.110;20.622;2023-02-01T00:18:47;1.55;;;0.75;;
58659;SDS011;44429;45.110;20.622;2023-02-01T00:21:14;1.27;;;0.63;;
58659;SDS011;44429;45.110;20.622;2023-02-01T00:23:40;2.90;;;0.60;;
58659;SDS011;44429;45.110;20.622;2023-02-01T00:26:07;1.60;;;0.75;;
58659;SDS011;44429;45.110;20.622;2023-02-01T00:28:35;1.27;;;0.77;;
58659;SDS011;44429;45.110;20.622;2023-02-01T00:31:02;0.98;;;0.45;;
58659;SDS011;44429;45.110;20.622;2023-02-01T00:33:29;0.17;;;0.05;;
58659;SDS011;44429;45.110;20.622;2023-02-01T00:36:14;0.60;;;0.50;;
58659;SDS011;44429;45.110;20.622;2023-02-01T00:38:40;1.10;;;0.57;;
58659;SDS011;44429;45.110;20.622;2023-02-01T00:41:07;0.52;;;0.30;;
58659;SDS011;44429;45.110;20.622;2023-02-01T00:43:33;0.70;;;0.32;;
58659;SDS011;44429;45.110;20.622;2023-02-01T00:46:00;0.60;;;0.25;;
58659;SDS011;44429;45.110;20.622;2023-02-01T00:48:26;1.05;;;0.08;;
58659;SDS011;44429;45.110;20.622;2023-02-01T00:50:52;0.30;;;0.20;;
58659;SDS011;44429;45.110;20.622;2023-02-01T00:53:18;0.00;;;0.00;;
58659;SDS011;44429;45.110;20.622;2023-02-01T00:55:44;0.43;;;0.17;;
58659;SDS011;44429;45.110;20.622;2023-02-01T00:58:11;0.28;;;0.20;;
58659;SDS011;44429;45.110;20.622;2023-02-01T01:00:37;0.50;;;0.20;;
58659;SDS011;44429;45.110;20.622;2023-02-01T01:03:03;1.55;;;0.82;;
58659;SDS011;44429;45.110;20.622;2023-02-01T01:05:48;2.25;;;0.65;;
58659;SDS011;44429;45.110;20.622;2023-02-01T01:08:15;0.85;;;0.38;;
58659;SDS011;44429;45.110;20.622;2023-02-01T01:10:41;1.35;;;0.95;;
58659;SDS011;44429;45.110;20.622;2023-02-01T01:13:07;0.98;;;0.47;;
58659;SDS011;44429;45.110;20.622;2023-02-01T01:15:39;0.25;;;0.20;;
58659;SDS011;44429;45.110;20.622;2023-02-01T01:18:05;0.00;;;0.00;;
58659;SDS011;44429;45.110;20.622;2023-02-01T01:20:33;0.00;;;0.00;;
58659;SDS011;44429;45.110;20.622;2023-02-01T01:23:00;0.00;;;0.00;;
58659;SDS011;44429;45.110;20.622;2023-02-01T01:25:26;0.25;;;0.20;;
58659;SDS011;44429;45.110;20.622;2023-02-01T01:27:52;0.93;;;0.68;;
58659;SDS011;44429;45.110;20.622;2023-02-01T01:30:18;1.35;;;1.08;;
58659;SDS011;44429;45.110;20.622;2023-02-01T01:32:44;0.85;;;0.30;;
58659;SDS011;44429;45.110;20.622;2023-02-01T01:35:10;0.85;;;0.60;;
58659;SDS011;44429;45.110;20.622;2023-02-01T01:37:36;0.45;;;0.30;;
58659;SDS011;44429;45.110;20.622;2023-02-01T01:40:03;1.50;;;0.43;;
58659;SDS011;44429;45.110;20.622;2023-02-01T01:42:29;0.00;;;0.00;;
58659;SDS011;44429;45.110;20.622;2023-02-01T01:47:21;1.48;;;0.38;;
58659;SDS011;44429;45.110;20.622;2023-02-01T01:49:47;0.10;;;0.10;;
58659;SDS011;44429;45.110;20.622;2023-02-01T01:52:13;2.08;;;0.98;;
58659;SDS011;44429;45.110;20.622;2023-02-01T01:54:45;1.65;;;0.68;;
58659;SDS011;44429;45.110;20.622;2023-02-01T01:57:55;0.93;;;0.65;;
58659;SDS011;44429;45.110;20.622;2023-02-01T02:00:04;0.47;;;0.32;;
58659;SDS011;44429;45.110;20.622;2023-02-01T02:02:32;0.30;;;0.10;;
58659;SDS011;44429;45.110;20.622;2023-02-01T02:04:58;0.63;;;0.20;;
58659;SDS011;44429;45.110;20.622;2023-02-01T02:07:29;0.00;;;0.00;;
58659;SDS011;44429;45.110;20.622;2023-02-01T02:09:56;2.20;;;0.52;;
58659;SDS011;44429;45.110;20.622;2023-02-01T02:12:22;1.42;;;0.75;;
58659;SDS011;44429;45.110;20.622;2023-02-01T02:14:48;0.20;;;0.10;;
58659;SDS011;44429;45.110;20.622;2023-02-01T02:20:26;1.55;;;0.93;;
58659;SDS011;44429;45.110;20.622;2023-02-01T02:35:48;1.88;;;0.98;;
58659;SDS011;44429;45.110;20.622;2023-02-01T02:41:22;1.45;;;0.63;;
58659;SDS011;44429;45.110;20.622;2023-02-01T02:44:00;0.90;;;0.32;;
58659;SDS011;44429;45.110;20.622;2023-02-01T02:46:48;2.60;;;1.58;;
58659;SDS011;44429;45.110;20.622;2023-02-01T02:49:34;1.42;;;1.13;;
58659;SDS011;44429;45.110;20.622;2023-02-01T02:52:05;1.10;;;0.40;;
58659;SDS011;44429;45.110;20.622;2023-02-01T02:54:51;1.40;;;0.77;;
58659;SDS011;44429;45.110;20.622;2023-02-01T02:57:26;4.55;;;1.45;;
58659;SDS011;44429;45.110;20.622;2023-02-01T03:00:14;2.47;;;0.75;;
58659;SDS011;44429;45.110;20.622;2023-02-01T03:03:00;0.22;;;0.15;;
58659;SDS011;44429;45.110;20.622;2023-02-01T03:05:46;8.43;;;2.58;;
58659;SDS011;44429;45.110;20.622;2023-02-01T03:08:16;0.40;;;0.20;;
58659;SDS011;44429;45.110;20.622;2023-02-01T03:13:17;2.40;;;0.38;;
58659;SDS011;44429;45.110;20.622;2023-02-01T03:18:13;1.88;;;0.50;;
58659;SDS011;44429;45.110;20.622;2023-02-01T03:20:42;0.30;;;0.10;;
58659;SDS011;44429;45.110;20.622;2023-02-01T03:23:10;1.83;;;1.00;;
58659;SDS011;44429;45.110;20.622;2023-02-01T03:25:39;1.20;;;0.57;;
58659;SDS011;44429;45.110;20.622;2023-02-01T03:28:09;0.98;;;0.52;;
58659;SDS011;44429;45.110;20.622;2023-02-01T03:30:39;0.80;;;0.32;;
58659;SDS011;44429;45.110;20.622;2023-02-01T03:33:08;0.20;;;0.15;;
58659;SDS011;44429;45.110;20.622;2023-02-01T03:38:18;1.25;;;0.93;;
58659;SDS011;44429;45.110;20.622;2023-02-01T03:40:46;5.68;;;1.00;;
58659;SDS011;44429;45.110;20.622;2023-02-01T03:43:14;1.23;;;0.45;;
58659;SDS011;44429;45.110;20.622;2023-02-01T03:45:43;0.63;;;0.25;;
58659;SDS011;44429;45.110;20.622;2023-02-01T03:48:12;1.17;;;0.55;;
58659;SDS011;44429;45.110;20.622;2023-02-01T03:50:40;1.25;;;0.65;;
58659;SDS011;44429;45.110;20.622;2023-02-01T03:53:11;1.10;;;0.75;;
58659;SDS011;44429;45.110;20.622;2023-02-01T03:55:38;3.20;;;0.68;;
58659;SDS011;44429;45.110;20.622;2023-02-01T03:58:14;2.05;;;1.05;;
58659;SDS011;44429;45.110;20.622;2023-02-01T04:00:43;0.90;;;0.30;;
58659;SDS011;44429;45.110;20.622;2023-02-01T04:03:10;0.57;;;0.35;;
58659;SDS011;44429;45.110;20.622;2023-02-01T04:05:36;3.55;;;0.70;;
58659;SDS011;44429;45.110;20.622;2023-02-01T04:08:02;1.35;;;0.47;;
58659;SDS011;44429;45.110;20.622;2023-02-01T04:10:30;0.65;;;0.20;;
58659;SDS011;44429;45.110;20.622;2023-02-01T04:12:56;0.75;;;0.43;;
58659;SDS011;44429;45.110;20.622;2023-02-01T04:15:22;0.10;;;0.10;;
58659;SDS011;44429;45.110;20.622;2023-02-01T04:17:48;0.00;;;0.00;;
58659;SDS011;44429;45.110;20.622;2023-02-01T04:20:14;0.45;;;0.20;;
58659;SDS011;44429;45.110;20.622;2023-02-01T04:22:40;1.23;;;0.50;;
58659;SDS011;44429;45.110;20.622;2023-02-01T04:25:06;0.38;;;0.25;;
58659;SDS011;44429;45.110;20.622;2023-02-01T04:27:33;0.95;;;0.47;;
58659;SDS011;44429;45.110;20.622;2023-02-01T04:29:59;1.55;;;0.60;;
58659;SDS011;44429;45.110;20.622;2023-02-01T04:32:25;0.30;;;0.10;;
58659;SDS011;44429;45.110;20.622;2023-02-01T04:34:51;0.80;;;0.38;;
58659;SDS011;44429;45.110;20.622;2023-02-01T04:37:17;3.40;;;0.57;;
58659;SDS011;44429;45.110;20.622;2023-02-01T04:39:43;1.35;;;0.75;;
58659;SDS011;44429;45.110;20.622;2023-02-01T04:42:09;1.17;;;0.80;;
58659;SDS011;44429;45.110;20.622;2023-02-01T04:44:35;1.88;;;1.00;;
58659;SDS011;44429;45.110;20.622;2023-02-01T04:47:06;1.17;;;0.60;;
58659;SDS011;44429;45.110;20.622;2023-02-01T04:49:32;3.00;;;1.25;;
58659;SDS011;44429;45.110;20.622;2023-02-01T04:51:58;0.40;;;0.22;;
58659;SDS011;44429;45.110;20.622;2023-02-01T04:54:25;1.42;;;0.82;;
58659;SDS011;44429;45.110;20.622;2023-02-01T04:56:51;0.68;;;0.32;;
58659;SDS011;44429;45.110;20.622;2023-02-01T04:59:17;1.75;;;1.20;;
58659;SDS011;44429;45.110;20.622;2023-02-01T05:01:43;0.45;;;0.22;;
58659;SDS011;44429;45.110;20.622;2023-02-01T05:04:09;0.75;;;0.32;;
58659;SDS011;44429;45.110;20.622;2023-02-01T05:06:35;1.13;;;0.47;;
58659;SDS011;44429;45.110;20.622;2023-02-01T05:09:01;1.13;;;0.60;;
58659;SDS011;44429;45.110;20.622;2023-02-01T05:11:27;0.73;;;0.28;;
58659;SDS011;44429;45.110;20.622;2023-02-01T05:14:12;0.57;;;0.17;;
58659;SDS011;44429;45.110;20.622;2023-02-01T05:16:38;1.27;;;0.80;;
58659;SDS011;44429;45.110;20.622;2023-02-01T05:19:04;1.92;;;1.13;;
58659;SDS011;44429;45.110;20.622;2023-02-01T05:21:30;0.88;;;0.32;;
58659;SDS011;44429;45.110;20.622;2023-02-01T05:23:56;0.82;;;0.68;;
58659;SDS011;44429;45.110;20.622;2023-02-01T05:26:34;0.43;;;0.22;;
58659;SDS011;44429;45.110;20.622;2023-02-01T05:29:00;9.18;;;4.05;;
58659;SDS011;44429;45.110;20.622;2023-02-01T05:31:26;12.23;;;3.75;;
58659;SDS011;44429;45.110;20.622;2023-02-01T05:33:52;3.70;;;1.10;;
58659;SDS011;44429;45.110;20.622;2023-02-01T05:36:18;2.97;;;2.10;;
58659;SDS011;44429;45.110;20.622;2023-02-01T05:38:44;0.38;;;0.20;;
58659;SDS011;44429;45.110;20.622;2023-02-01T05:41:10;1.75;;;0.98;;
58659;SDS011;44429;45.110;20.622;2023-02-01T05:43:36;1.75;;;0.75;;
58659;SDS011;44429;45.110;20.622;2023-02-01T05:46:02;3.53;;;2.17;;
58659;SDS011;44429;45.110;20.622;2023-02-01T05:48:29;4.43;;;1.13;;
58659;SDS011;44429;45.110;20.622;2023-02-01T05:50:55;0.05;;;0.05;;
58659;SDS011;44429;45.110;20.622;2023-02-01T05:53:21;1.38;;;0.85;;
58659;SDS011;44429;45.110;20.622;2023-02-01T05:55:47;3.00;;;1.17;;
58659;SDS011;44429;45.110;20.622;2023-02-01T05:58:15;0.73;;;0.52;;
58659;SDS011;44429;45.110;20.622;2023-02-01T06:00:41;1.25;;;0.85;;
58659;SDS011;44429;45.110;20.622;2023-02-01T06:03:07;3.30;;;0.55;;
58659;SDS011;44429;45.110;20.622;2023-02-01T06:05:33;0.73;;;0.30;;
58659;SDS011;44429;45.110;20.622;2023-02-01T06:07:59;2.90;;;0.98;;
58659;SDS011;44429;45.110;20.622;2023-02-01T06:10:25;2.08;;;1.05;;
58659;SDS011;44429;45.110;20.622;2023-02-01T06:12:51;2.17;;;1.00;;
58659;SDS011;44429;45.110;20.622;2023-02-01T06:15:17;3.88;;;1.77;;
58659;SDS011;44429;45.110;20.622;2023-02-01T06:17:44;4.90;;;1.25;;
58659;SDS011;44429;45.110;20.622;2023-02-01T06:20:11;2.55;;;0.47;;
58659;SDS011;44429;45.110;20.622;2023-02-01T06:22:37;12.25;;;1.48;;
58659;SDS011;44429;45.110;20.622;2023-02-01T06:25:04;0.88;;;0.40;;
58659;SDS011;44429;45.110;20.622;2023-02-01T06:27:30;0.50;;;0.30;;
58659;SDS011;44429;45.110;20.622;2023-02-01T06:29:57;1.67;;;0.75;;
58659;SDS011;44429;45.110;20.622;2023-02-01T06:32:23;2.88;;;1.55;;
58659;SDS011;44429;45.110;20.622;2023-02-01T06:34:49;4.68;;;1.85;;
58659;SDS011;44429;45.110;20.622;2023-02-01T06:37:17;1.77;;;0.93;;
58659;SDS011;44429;45.110;20.622;2023-02-01T06:39:43;1.75;;;0.80;;
58659;SDS011;44429;45.110;20.622;2023-02-01T06:42:09;0.17;;;0.10;;
58659;SDS011;44429;45.110;20.622;2023-02-01T06:44:35;0.80;;;0.22;;
58659;SDS011;44429;45.110;20.622;2023-02-01T06:47:02;1.85;;;1.13;;
58659;SDS011;44429;45.110;20.622;2023-02-01T06:49:29;1.85;;;1.20;;
58659;SDS011;44429;45.110;20.622;2023-02-01T06:51:55;1.55;;;0.50;;
58659;SDS011;44429;45.110;20.622;2023-02-01T06:54:21;0.98;;;0.57;;
58659;SDS011;44429;45.110;20.622;2023-02-01T06:56:47;0.52;;;0.30;;
58659;SDS011;44429;45.110;20.622;2023-02-01T06:59:13;0.52;;;0.20;;
58659;SDS011;44429;45.110;20.622;2023-02-01T07:01:39;0.32;;;0.30;;
58659;SDS011;44429;45.110;20.622;2023-02-01T07:04:05;1.13;;;0.63;;
58659;SDS011;44429;45.110;20.622;2023-02-01T07:06:31;0.17;;;0.08;;
58659;SDS011;44429;45.110;20.622;2023-02-01T07:08:57;1.42;;;0.93;;
58659;SDS011;44429;45.110;20.622;2023-02-01T07:11:25;0.52;;;0.32;;
58659;SDS011;44429;45.110;20.622;2023-02-01T07:13:53;0.57;;;0.32;;
58659;SDS011;44429;45.110;20.622;2023-02-01T07:16:19;2.47;;;0.52;;
58659;SDS011;44429;45.110;20.622;2023-02-01T07:18:45;2.38;;;1.17;;
58659;SDS011;44429;45.110;20.622;2023-02-01T07:21:12;1.70;;;1.10;;
58659;SDS011;44429;45.110;20.622;2023-02-01T07:23:38;6.00;;;0.80;;
58659;SDS011;44429;45.110;20.622;2023-02-01T07:26:05;0.57;;;0.25;;
58659;SDS011;44429;45.110;20.622;2023-02-01T07:28:32;0.63;;;0.20;;
58659;SDS011;44429;45.110;20.622;2023-02-01T07:31:09;0.35;;;0.17;;
58659;SDS011;44429;45.110;20.622;2023-02-01T07:33:35;0.68;;;0.40;;
58659;SDS011;44429;45.110;20.622;2023-02-01T07:36:02;2.95;;;0.60;;
58659;SDS011;44429;45.110;20.622;2023-02-01T07:38:29;0.63;;;0.43;;
58659;SDS011;44429;45.110;20.622;2023-02-01T07:40:58;0.88;;;0.40;;
58659;SDS011;44429;45.110;20.622;2023-02-01T07:43:24;1.60;;;0.73;;
58659;SDS011;44429;45.110;20.622;2023-02-01T07:45:51;1.85;;;0.60;;
58659;SDS011;44429;45.110;20.622;2023-02-01T07:48:17;0.00;;;0.00;;
58659;SDS011;44429;45.110;20.622;2023-02-01T07:50:43;0.17;;;0.10;;
58659;SDS011;44429;45.110;20.622;2023-02-01T07:53:09;1.02;;;0.43;;
58659;SDS011;44429;45.110;20.622;2023-02-01T07:55:40;1.48;;;0.50;;
58659;SDS011;44429;45.110;20.622;2023-02-01T07:58:06;5.22;;;0.68;;
58659;SDS011;44429;45.110;20.622;2023-02-01T08:00:32;0.65;;;0.28;;
58659;SDS011;44429;45.110;20.622;2023-02-01T08:03:17;0.50;;;0.17;;
58659;SDS011;44429;45.110;20.622;2023-02-01T08:05:43;6.28;;;3.20;;
58659;SDS011;44429;45.110;20.622;2023-02-01T08:08:09;2.95;;;0.52;;
58659;SDS011;44429;45.110;20.622;2023-02-01T08:10:35;0.85;;;0.40;;
58659;SDS011;44429;45.110;20.622;2023-02-01T08:13:02;1.40;;;0.80;;
58659;SDS011;44429;45.110;20.622;2023-02-01T08:15:28;2.00;;;0.82;;
58659;SDS011;44429;45.110;20.622;2023-02-01T08:17:54;4.63;;;1.48;;
58659;SDS011;44429;45.110;20.622;2023-02-01T08:20:21;1.08;;;0.65;;
58659;SDS011;44429;45.110;20.622;2023-02-01T08:22:53;5.72;;;1.40;;
58659;SDS011;44429;45.110;20.622;2023-02-01T08:25:19;3.35;;;1.02;;
58659;SDS011;44429;45.110;20.622;2023-02-01T08:27:46;1.85;;;0.68;;
58659;SDS011;44429;45.110;20.622;2023-02-01T08:30:12;10.90;;;2.13;;
58659;SDS011;44429;45.110;20.622;2023-02-01T08:32:38;12.93;;;3.50;;
58659;SDS011;44429;45.110;20.622;2023-02-01T08:35:05;4.25;;;1.50;;
58659;SDS011;44429;45.110;20.622;2023-02-01T08:37:31;2.45;;;1.95;;
58659;SDS011;44429;45.110;20.622;2023-02-01T08:39:57;1.77;;;0.93;;
58659;SDS011;44429;45.110;20.622;2023-02-01T08:42:23;3.15;;;1.50;;
58659;SDS011;44429;45.110;20.622;2023-02-01T08:45:08;6.85;;;3.45;;
58659;SDS011;44429;45.110;20.622;2023-02-01T08:47:34;3.08;;;1.33;;
58659;SDS011;44429;45.110;20.622;2023-02-01T08:50:00;1.92;;;0.95;;
58659;SDS011;44429;45.110;20.622;2023-02-01T08:52:27;8.60;;;1.13;;
58659;SDS011;44429;45.110;20.622;2023-02-01T08:54:53;29.25;;;6.95;;
58659;SDS011;44429;45.110;20.622;2023-02-01T08:57:19;29.65;;;10.68;;
58659;SDS011;44429;45.110;20.622;2023-02-01T08:59:45;18.23;;;5.80;;
58659;SDS011;44429;45.110;20.622;2023-02-01T09:02:15;15.45;;;4.80;;
58659;SDS011;44429;45.110;20.622;2023-02-01T09:04:41;15.25;;;5.70;;
58659;SDS011;44429;45.110;20.622;2023-02-01T09:07:10;18.55;;;5.70;;
58659;SDS011;44429;45.110;20.622;2023-02-01T09:09:38;15.10;;;5.18;;
58659;SDS011;44429;45.110;20.622;2023-02-01T09:12:04;12.10;;;7.70;;
58659;SDS011;44429;45.110;20.622;2023-02-01T09:14:31;8.93;;;5.30;;
58659;SDS011;44429;45.110;20.622;2023-02-01T09:16:57;28.45;;;12.00;;
58659;SDS011;44429;45.110;20.622;2023-02-01T09:19:23;8.50;;;4.95;;
58659;SDS011;44429;45.110;20.622;2023-02-01T09:21:49;3.88;;;2.35;;
58659;SDS011;44429;45.110;20.622;2023-02-01T09:24:15;1.70;;;0.98;;
58659;SDS011;44429;45.110;20.622;2023-02-01T09:26:41;4.20;;;2.78;;
58659;SDS011;44429;45.110;20.622;2023-02-01T09:29:07;2.65;;;1.08;;
58659;SDS011;44429;45.110;20.622;2023-02-01T09:31:36;3.60;;;1.42;;
58659;SDS011;44429;45.110;20.622;2023-02-01T09:34:03;13.90;;;0.95;;
58659;SDS011;44429;45.110;20.622;2023-02-01T09:36:29;8.50;;;0.75;;
58659;SDS011;44429;45.110;20.622;2023-02-01T09:38:55;3.20;;;1.23;;
58659;SDS011;44429;45.110;20.622;2023-02-01T09:43:56;2.83;;;1.13;;
58659;SDS011;44429;45.110;20.622;2023-02-01T09:48:55;1.23;;;0.50;;
58659;SDS011;44429;45.110;20.622;2023-02-01T09:51:24;3.47;;;1.13;;
58659;SDS011;44429;45.110;20.622;2023-02-01T09:54:00;0.98;;;0.25;;
58659;SDS011;44429;45.110;20.622;2023-02-01T09:56:29;1.08;;;0.45;;
58659;SDS011;44429;45.110;20.622;2023-02-01T09:59:20;3.60;;;1.75;;
58659;SDS011;44429;45.110;20.622;2023-02-01T10:01:49;2.65;;;1.25;;
58659;SDS011;44429;45.110;20.622;2023-02-01T10:04:16;1.17;;;0.57;;
58659;SDS011;44429;45.110;20.622;2023-02-01T10:09:28;1.35;;;0.40;;
58659;SDS011;44429;45.110;20.622;2023-02-01T10:19:27;2.10;;;1.05;;
58659;SDS011;44429;45.110;20.622;2023-02-01T10:22:06;1.17;;;0.43;;
58659;SDS011;44429;45.110;20.622;2023-02-01T10:24:38;7.28;;;1.77;;
58659;SDS011;44429;45.110;20.622;2023-02-01T10:29:44;4.00;;;1.98;;
58659;SDS011;44429;45.110;20.622;2023-02-01T10:32:30;1.65;;;1.17;;
58659;SDS011;44429;45.110;20.622;2023-02-01T10:34:58;1.65;;;1.05;;
58659;SDS011;44429;45.110;20.622;2023-02-01T10:39:54;1.20;;;0.40;;
58659;SDS011;44429;45.110;20.622;2023-02-01T10:42:21;0.47;;;0.20;;
58659;SDS011;44429;45.110;20.622;2023-02-01T10:44:49;0.10;;;0.10;;
58659;SDS011;44429;45.110;20.622;2023-02-01T10:47:15;2.45;;;1.05;;
58659;SDS011;44429;45.110;20.622;2023-02-01T10:49:50;3.33;;;1.52;;
58659;SDS011;44429;45.110;20.622;2023-02-01T10:52:26;1.98;;;0.40;;
58659;SDS011;44429;45.110;20.622;2023-02-01T10:54:56;0.68;;;0.40;;
58659;SDS011;44429;45.110;20.622;2023-02-01T10:57:23;0.77;;;0.60;;
58659;SDS011;44429;45.110;20.622;2023-02-01T11:02:31;0.38;;;0.20;;
58659;SDS011;44429;45.110;20.622;2023-02-01T11:04:58;2.83;;;1.00;;
58659;SDS011;44429;45.110;20.622;2023-02-01T11:07:25;2.10;;;1.17;;
58659;SDS011;44429;45.110;20.622;2023-02-01T11:09:53;0.65;;;0.17;;
58659;SDS011;44429;45.110;20.622;2023-02-01T11:12:22;2.85;;;0.73;;
58659;SDS011;44429;45.110;20.622;2023-02-01T11:14:49;4.88;;;0.68;;
58659;SDS011;44429;45.110;20.622;2023-02-01T11:19:45;2.17;;;0.88;;
58659;SDS011;44429;45.110;20.622;2023-02-01T11:22:11;4.80;;;1.40;;
58659;SDS011;44429;45.110;20.622;2023-02-01T11:24:37;5.15;;;1.95;;
58659;SDS011;44429;45.110;20.622;2023-02-01T11:27:05;3.75;;;1.42;;
58659;SDS011;44429;45.110;20.622;2023-02-01T11:29:34;4.03;;;0.95;;
58659;SDS011;44429;45.110;20.622;2023-02-01T11:32:01;3.03;;;1.05;;
58659;SDS011;44429;45.110;20.622;2023-02-01T11:34:30;0.90;;;0.40;;
58659;SDS011;44429;45.110;20.622;2023-02-01T11:39:31;2.53;;;1.02;;
58659;SDS011;44429;45.110;20.622;2023-02-01T11:42:05;2.40;;;1.48;;
58659;SDS011;44429;45.110;20.622;2023-02-01T11:44:33;1.00;;;0.45;;
58659;SDS011;44429;45.110;20.622;2023-02-01T11:47:18;0.45;;;0.28;;
58659;SDS011;44429;45.110;20.622;2023-02-01T11:49:45;2.22;;;1.10;;
58659;SDS011;44429;45.110;20.622;2023-02-01T12:15:41;3.55;;;1.80;;
58659;SDS011;44429;45.110;20.622;2023-02-01T12:20:59;2.55;;;1.02;;
58659;SDS011;44429;45.110;20.622;2023-02-01T12:33:44;0.60;;;0.30;;
58659;SDS011;44429;45.110;20.622;2023-02-01T12:41:11;2.22;;;1.08;;
58659;SDS011;44429;45.110;20.622;2023-02-01T12:43:40;10.32;;;1.55;;
58659;SDS011;44429;45.110;20.622;2023-02-01T12:51:18;3.83;;;0.88;;
58659;SDS011;44429;45.110;20.622;2023-02-01T12:54:08;0.68;;;0.35;;
58659;SDS011;44429;45.110;20.622;2023-02-01T12:56:41;2.80;;;1.10;;
58659;SDS011;44429;45.110;20.622;2023-02-01T12:59:16;1.98;;;1.38;;
58659;SDS011;44429;45.110;20.622;2023-02-01T13:01:45;0.60;;;0.50;;
58659;SDS011;44429;45.110;20.622;2023-02-01T13:04:17;3.67;;;1.55;;
58659;SDS011;44429;45.110;20.622;2023-02-01T13:06:46;2.42;;;1.33;;
58659;SDS011;44429;45.110;20.622;2023-02-01T13:09:19;1.33;;;0.50;;
58659;SDS011;44429;45.110;20.622;2023-02-01T13:11:46;1.70;;;0.60;;
58659;SDS011;44429;45.110;20.622;2023-02-01T13:14:33;1.45;;;0.63;;
58659;SDS011;44429;45.110;20.622;2023-02-01T13:22:04;7.15;;;0.40;;
58659;SDS011;44429;45.110;20.622;2023-02-01T13:24:52;1.52;;;0.57;;
58659;SDS011;44429;45.110;20.622;2023-02-01T13:27:20;1.30;;;0.55;;
58659;SDS011;44429;45.110;20.622;2023-02-01T13:43:00;0.20;;;0.20;;
58659;SDS011;44429;45.110;20.622;2023-02-01T13:45:29;0.30;;;0.15;;
58659;SDS011;44429;45.110;20.622;2023-02-01T13:47:57;0.50;;;0.25;;
58659;SDS011;44429;45.110;20.622;2023-02-01T13:53:14;5.05;;;1.05;;
58659;SDS011;44429;45.110;20.622;2023-02-01T13:58:21;0.25;;;0.10;;
58659;SDS011;44429;45.110;20.622;2023-02-01T14:00:48;0.40;;;0.13;;
58659;SDS011;44429;45.110;20.622;2023-02-01T14:03:20;4.47;;;1.67;;
58659;SDS011;44429;45.110;20.622;2023-02-01T14:08:13;4.53;;;1.75;;
58659;SDS011;44429;45.110;20.622;2023-02-01T14:23:41;12.45;;;1.90;;
58659;SDS011;44429;45.110;20.622;2023-02-01T14:26:09;6.20;;;1.58;;
58659;SDS011;44429;45.110;20.622;2023-02-01T14:28:38;5.40;;;1.55;;
58659;SDS011;44429;45.110;20.622;2023-02-01T14:31:13;4.50;;;1.67;;
58659;SDS011;44429;45.110;20.622;2023-02-01T14:33:41;3.08;;;1.67;;
58659;SDS011;44429;45.110;20.622;2023-02-01T14:36:09;3.35;;;1.35;;
58659;SDS011;44429;45.110;20.622;2023-02-01T14:38:37;1.63;;;0.70;;
58659;SDS011;44429;45.110;20.622;2023-02-01T14:41:10;1.42;;;0.70;;
58659;SDS011;44429;45.110;20.622;2023-02-01T14:43:50;2.10;;;1.00;;
58659;SDS011;44429;45.110;20.622;2023-02-01T14:46:16;2.22;;;1.10;;
58659;SDS011;44429;45.110;20.622;2023-02-01T14:48:43;6.13;;;2.13;;
58659;SDS011;44429;45.110;20.622;2023-02-01T14:51:11;2.85;;;0.98;;
58659;SDS011;44429;45.110;20.622;2023-02-01T14:53:39;13.65;;;3.65;;
58659;SDS011;44429;45.110;20.622;2023-02-01T14:56:08;5.38;;;2.38;;
58659;SDS011;44429;45.110;20.622;2023-02-01T15:03:39;6.43;;;1.15;;
58659;SDS011;44429;45.110;20.622;2023-02-01T15:08:57;4.72;;;1.85;;
58659;SDS011;44429;45.110;20.622;2023-02-01T15:11:23;4.55;;;1.67;;
58659;SDS011;44429;45.110;20.622;2023-02-01T15:13:50;9.75;;;3.42;;
58659;SDS011;44429;45.110;20.622;2023-02-01T15:16:20;4.22;;;1.90;;
58659;SDS011;44429;45.110;20.622;2023-02-01T15:18:47;4.00;;;1.23;;
58659;SDS011;44429;45.110;20.622;2023-02-01T15:21:21;3.97;;;2.08;;
58659;SDS011;44429;45.110;20.622;2023-02-01T15:23:48;3.00;;;0.88;;
58659;SDS011;44429;45.110;20.622;2023-02-01T15:26:28;1.85;;;0.70;;
58659;SDS011;44429;45.110;20.622;2023-02-01T15:28:56;5.53;;;1.60;;
58659;SDS011;44429;45.110;20.622;2023-02-01T15:31:32;1.90;;;0.77;;
58659;SDS011;44429;45.110;20.622;2023-02-01T15:33:59;1.10;;;0.65;;
58659;SDS011;44429;45.110;20.622;2023-02-01T15:36:25;1.23;;;0.50;;
58659;SDS011;44429;45.110;20.622;2023-02-01T15:42:11;2.97;;;1.33;;
58659;SDS011;44429;45.110;20.622;2023-02-01T15:44:41;1.73;;;1.10;;
58659;SDS011;44429;45.110;20.622;2023-02-01T15:49:39;1.95;;;0.52;;
58659;SDS011;44429;45.110;20.622;2023-02-01T15:55:04;2.08;;;0.77;;
58659;SDS011;44429;45.110;20.622;2023-02-01T15:57:31;21.60;;;4.82;;
58659;SDS011;44429;45.110;20.622;2023-02-01T16:00:03;6.88;;;2.97;;
58659;SDS011;44429;45.110;20.622;2023-02-01T16:02:34;5.72;;;2.17;;
58659;SDS011;44429;45.110;20.622;2023-02-01T16:05:03;4.93;;;2.17;;
58659;SDS011;44429;45.110;20.622;2023-02-01T16:07:30;11.77;;;2.40;;
58659;SDS011;44429;45.110;20.622;2023-02-01T16:09:58;5.20;;;2.22;;
58659;SDS011;44429;45.110;20.622;2023-02-01T16:12:31;5.82;;;2.92;;
58659;SDS011;44429;45.110;20.622;2023-02-01T16:15:00;7.18;;;2.95;;
58659;SDS011;44429;45.110;20.622;2023-02-01T16:17:26;8.75;;;3.03;;
58659;SDS011;44429;45.110;20.622;2023-02-01T16:19:52;13.90;;;2.58;;
58659;SDS011;44429;45.110;20.622;2023-02-01T16:22:18;11.02;;;4.35;;
58659;SDS011;44429;45.110;20.622;2023-02-01T16:24:44;17.27;;;4.55;;
58659;SDS011;44429;45.110;20.622;2023-02-01T16:27:10;14.80;;;5.97;;
58659;SDS011;44429;45.110;20.622;2023-02-01T16:29:36;22.77;;;7.15;;
58659;SDS011;44429;45.110;20.622;2023-02-01T16:32:02;18.52;;;5.43;;
58659;SDS011;44429;45.110;20.622;2023-02-01T16:34:29;18.33;;;4.72;;
58659;SDS011;44429;45.110;20.622;2023-02-01T16:36:55;7.88;;;3.80;;
58659;SDS011;44429;45.110;20.622;2023-02-01T16:39:22;5.25;;;2.15;;
58659;SDS011;44429;45.110;20.622;2023-02-01T16:41:49;13.07;;;4.68;;
58659;SDS011;44429;45.110;20.622;2023-02-01T16:44:15;14.13;;;6.32;;
58659;SDS011;44429;45.110;20.622;2023-02-01T16:46:42;8.48;;;3.33;;
58659;SDS011;44429;45.110;20.622;2023-02-01T16:49:23;7.45;;;3.53;;
58659;SDS011;44429;45.110;20.622;2023-02-01T16:51:49;9.95;;;3.17;;
58659;SDS011;44429;45.110;20.622;2023-02-01T16:54:18;8.57;;;4.13;;
58659;SDS011;44429;45.110;20.622;2023-02-01T16:56:44;9.98;;;3.35;;
58659;SDS011;44429;45.110;20.622;2023-02-01T16:59:11;11.90;;;3.13;;
58659;SDS011;44429;45.110;20.622;2023-02-01T17:01:37;11.70;;;3.85;;
58659;SDS011;44429;45.110;20.622;2023-02-01T17:04:04;18.00;;;4.70;;
58659;SDS011;44429;45.110;20.622;2023-02-01T17:06:30;7.63;;;4.78;;
58659;SDS011;44429;45.110;20.622;2023-02-01T17:08:57;8.68;;;4.10;;
58659;SDS011;44429;45.110;20.622;2023-02-01T17:11:24;6.72;;;3.10;;
58659;SDS011;44429;45.110;20.622;2023-02-01T17:13:51;19.38;;;6.40;;
58659;SDS011;44429;45.110;20.622;2023-02-01T17:18:43;17.13;;;9.05;;
58659;SDS011;44429;45.110;20.622;2023-02-01T17:21:09;7.68;;;4.85;;
58659;SDS011;44429;45.110;20.622;2023-02-01T17:23:36;1.17;;;0.75;;
58659;SDS011;44429;45.110;20.622;2023-02-01T17:26:02;2.47;;;1.65;;